createdAt,value
2019-02-18T00:01:30.059Z,100930.45
2019-02-18T00:04:00.398Z,100930.14
2019-02-18T00:06:30.794Z,100925.85
2019-02-18T00:09:01.126Z,100924.56
2019-02-18T00:11:31.481Z,100917.64
2019-02-18T00:14:01.831Z,100921.52
2019-02-18T00:16:32.277Z,100926.11
2019-02-18T00:19:03.023Z,100923.61
2019-02-18T00:21:33.350Z,100920.41
2019-02-18T00:24:03.789Z,100919.38
2019-02-18T00:26:34.165Z,100921.21
2019-02-18T00:29:04.560Z,100920.63
2019-02-18T00:31:34.861Z,100927.61
2019-02-18T00:34:05.269Z,100927.69
2019-02-18T00:36:35.668Z,100918.19
2019-02-18T00:39:06.503Z,100921.35
2019-02-18T00:41:37.305Z,100926.31
2019-02-18T00:44:07.638Z,100925.66
2019-02-18T00:46:37.964Z,100929.59
2019-02-18T00:49:08.912Z,100926.62
2019-02-18T00:51:39.257Z,100923.70
2019-02-18T00:54:09.657Z,100921.33
2019-02-18T00:56:39.992Z,100919.06
2019-02-18T00:59:10.385Z,100926.83
2019-02-18T01:01:40.791Z,100918.58
2019-02-18T01:04:11.161Z,100926.66
2019-02-18T01:06:42.082Z,100921.03
2019-02-18T01:09:12.452Z,100922.70
2019-02-18T01:11:42.813Z,100923.87
2019-02-18T01:14:13.311Z,100920.97
2019-02-18T01:16:43.957Z,100923.65
2019-02-18T01:19:14.263Z,100918.84
2019-02-18T01:21:44.656Z,100913.83
2019-02-18T01:24:15.384Z,100910.28
2019-02-18T01:26:45.755Z,100909.98
2019-02-18T01:29:16.261Z,100905.86
2019-02-18T01:31:47.019Z,100911.23
2019-02-18T01:34:17.540Z,100911.09
2019-02-18T01:36:47.964Z,100909.20
2019-02-18T01:39:18.243Z,100909.55
2019-02-18T01:41:48.679Z,100902.23
2019-02-18T01:44:19.416Z,100904.25
2019-02-18T01:46:54.493Z,100898.54
2019-02-18T01:49:24.825Z,100893.58
2019-02-18T01:51:55.223Z,100893.23
2019-02-18T01:54:25.529Z,100890.17
2019-02-18T01:56:56.368Z,100883.12
2019-02-18T01:59:26.882Z,100879.20
2019-02-18T02:01:57.208Z,100874.77
2019-02-18T02:04:28.133Z,100879.59
2019-02-18T02:06:58.526Z,100875.66
2019-02-18T02:09:29.367Z,100871.88
2019-02-18T02:11:59.772Z,100874.56
2019-02-18T02:14:30.102Z,100870.95
2019-02-18T02:17:00.392Z,100871.59
2019-02-18T02:19:30.768Z,100871.07
2019-02-18T02:22:01.124Z,100869.11
2019-02-18T02:24:31.547Z,100858.95
2019-02-18T02:27:01.871Z,100858.64
2019-02-18T02:29:32.259Z,100852.62
2019-02-18T02:32:02.560Z,100848.42
2019-02-18T02:34:32.956Z,100844.63
2019-02-18T02:37:03.372Z,100842.91
2019-02-18T02:39:33.775Z,100842.73
2019-02-18T02:42:04.168Z,100836.64
2019-02-18T02:44:34.501Z,100850.16
2019-02-18T02:47:05.301Z,100846.83
2019-02-18T02:49:36.159Z,100842.98
2019-02-18T02:52:06.979Z,100840.37
2019-02-18T02:54:37.445Z,100837.81
2019-02-18T02:57:07.796Z,100845.34
2019-02-18T02:59:38.228Z,100843.75
2019-02-18T03:02:09.049Z,100835.55
2019-02-18T03:04:39.493Z,100839.08
2019-02-18T03:07:09.926Z,100835.02
2019-02-18T03:09:40.255Z,100830.88
2019-02-18T03:12:10.952Z,100830.69
2019-02-18T03:14:41.283Z,100833.55
2019-02-18T03:17:11.590Z,100830.59
2019-02-18T03:19:41.989Z,100832.88
2019-02-18T03:22:12.521Z,100838.33
2019-02-18T03:25:18.672Z,100843.45
2019-02-18T03:27:50.167Z,100838.70
2019-02-18T03:30:48.655Z,100841.35
2019-02-18T03:33:22.484Z,100839.09
2019-02-18T03:35:52.903Z,100836.56
2019-02-18T03:38:31.084Z,100836.78
2019-02-18T03:41:02.873Z,100836.84
2019-02-18T03:43:27.628Z,100842.29
2019-02-18T03:45:58.037Z,100839.05
2019-02-18T03:48:28.340Z,100836.94
2019-02-18T03:50:58.734Z,100838.38
2019-02-18T03:53:29.466Z,100840.19
2019-02-18T03:56:00.461Z,100841.20
2019-02-18T03:58:30.835Z,100839.66
2019-02-18T04:01:01.266Z,100835.01
2019-02-18T04:03:31.652Z,100834.81
2019-02-18T04:06:02.208Z,100840.12
2019-02-18T04:08:42.339Z,100837.24
2019-02-18T04:11:04.780Z,100839.50
2019-02-18T04:13:35.128Z,100840.41
2019-02-18T04:16:05.875Z,100839.50
2019-02-18T04:18:36.261Z,100843.02
2019-02-18T04:21:06.590Z,100841.98
2019-02-18T04:23:36.998Z,100841.75
2019-02-18T04:26:07.322Z,100841.48
2019-02-18T04:28:37.906Z,100834.22
2019-02-18T04:31:08.228Z,100837.39
2019-02-18T04:33:38.608Z,100833.11
2019-02-18T04:36:10.869Z,100824.41
2019-02-18T04:38:41.280Z,100830.27
2019-02-18T04:41:11.570Z,100824.36
2019-02-18T04:43:42.328Z,100822.84
2019-02-18T04:46:12.762Z,100824.14
2019-02-18T04:48:43.105Z,100828.94
2019-02-18T04:51:14.028Z,100822.42
2019-02-18T04:53:44.434Z,100824.14
2019-02-18T04:56:15.252Z,100827.19
2019-02-18T04:58:45.702Z,100820.31
2019-02-18T05:01:16.964Z,100824.72
2019-02-18T05:03:47.642Z,100823.03
2019-02-18T05:06:18.200Z,100823.03
2019-02-18T05:08:48.532Z,100823.72
2019-02-18T05:11:23.072Z,100816.48
2019-02-18T05:13:51.135Z,100823.80
2019-02-18T05:16:21.537Z,100818.15
2019-02-18T05:18:51.868Z,100818.09
2019-02-18T05:21:22.266Z,100828.58
2019-02-18T05:23:52.581Z,100824.28
2019-02-18T05:26:24.487Z,100820.70
2019-02-18T05:28:54.835Z,100817.78
2019-02-18T05:31:25.169Z,100821.31
2019-02-18T05:33:55.570Z,100821.12
2019-02-18T05:36:26.325Z,100822.53
2019-02-18T05:38:56.707Z,100827.44
2019-02-18T05:41:27.072Z,100816.69
2019-02-18T05:43:57.452Z,100822.45
2019-02-18T05:46:27.804Z,100820.03
2019-02-18T05:48:58.227Z,100820.95
2019-02-18T05:51:29.005Z,100822.64
2019-02-18T05:53:59.764Z,100824.44
2019-02-18T05:56:30.091Z,100824.74
2019-02-18T05:59:01.152Z,100817.12
2019-02-18T06:01:31.721Z,100831.16
2019-02-18T06:04:02.098Z,100829.50
2019-02-18T06:06:33.020Z,100827.16
2019-02-18T06:09:04.759Z,100830.76
2019-02-18T06:11:35.080Z,100827.94
2019-02-18T06:14:05.614Z,100836.92
2019-02-18T06:16:36.011Z,100832.56
2019-02-18T06:19:06.386Z,100831.09
2019-02-18T06:21:36.833Z,100841.82
2019-02-18T06:24:07.556Z,100833.75
2019-02-18T06:26:38.103Z,100840.87
2019-02-18T06:29:08.425Z,100838.27
2019-02-18T06:31:38.820Z,100845.97
2019-02-18T06:34:09.143Z,100847.88
2019-02-18T06:36:39.615Z,100851.20
2019-02-18T06:39:10.055Z,100849.73
2019-02-18T06:41:40.431Z,100854.30
2019-02-18T06:44:10.890Z,100850.75
2019-02-18T06:46:50.940Z,100852.30
2019-02-18T06:49:23.735Z,100854.83
2019-02-18T06:51:54.102Z,100845.16
2019-02-18T06:54:24.431Z,100851.53
2019-02-18T06:57:31.652Z,100854.46
2019-02-18T07:00:09.665Z,100862.20
2019-02-18T07:03:14.099Z,100856.59
2019-02-18T07:05:57.687Z,100860.65
2019-02-18T07:08:41.863Z,100849.53
2019-02-18T07:11:31.987Z,100844.92
2019-02-18T07:14:02.383Z,100834.41
2019-02-18T07:16:32.793Z,100848.02
2019-02-18T07:19:03.707Z,100841.53
2019-02-18T07:21:34.237Z,100837.95
2019-02-18T07:24:05.318Z,100833.66
2019-02-18T07:26:35.636Z,100835.36
2019-02-18T07:29:06.053Z,100833.27
2019-02-18T07:31:36.420Z,100833.96
2019-02-18T07:34:06.766Z,100824.65
2019-02-18T07:36:37.170Z,100824.52
2019-02-18T07:39:08.878Z,100824.85
2019-02-18T07:41:39.266Z,100824.45
2019-02-18T07:44:09.650Z,100824.80
2019-02-18T07:46:40.057Z,100825.42
2019-02-18T07:49:10.842Z,100825.97
2019-02-18T07:51:41.183Z,100817.78
2019-02-18T07:54:11.858Z,100811.09
2019-02-18T07:56:42.318Z,100809.22
2019-02-18T07:59:12.675Z,100803.61
2019-02-18T08:01:43.185Z,100808.88
2019-02-18T08:04:13.532Z,100809.59
2019-02-18T08:06:44.226Z,100812.28
2019-02-18T08:09:14.566Z,100804.41
2019-02-18T08:11:45.177Z,100804.84
2019-02-18T08:14:15.550Z,100803.34
2019-02-18T08:16:46.012Z,100804.80
2019-02-18T08:19:16.653Z,100801.91
2019-02-18T08:21:47.034Z,100788.16
2019-02-18T08:24:17.413Z,100792.38
2019-02-18T08:26:47.891Z,100788.45
2019-02-18T08:29:18.359Z,100791.10
2019-02-18T08:31:48.664Z,100788.17
2019-02-18T08:34:19.558Z,100782.03
2019-02-18T08:36:49.847Z,100786.22
2019-02-18T08:39:20.512Z,100792.75
2019-02-18T08:41:50.934Z,100784.34
2019-02-18T08:44:21.366Z,100785.91
2019-02-18T08:46:51.805Z,100780.11
2019-02-18T08:49:22.159Z,100785.92
2019-02-18T08:51:52.554Z,100786.91
2019-02-18T08:54:22.880Z,100780.23
2019-02-18T08:56:53.869Z,100776.70
2019-02-18T08:59:24.381Z,100777.79
2019-02-18T09:01:54.911Z,100779.55
2019-02-18T09:04:25.229Z,100774.42
2019-02-18T09:06:55.627Z,100784.77
2019-02-18T09:09:26.012Z,100770.86
2019-02-18T09:11:56.621Z,100777.55
2019-02-18T09:14:29.098Z,100770.66
2019-02-18T09:16:59.499Z,100768.93
2019-02-18T09:19:30.314Z,100761.95
2019-02-18T09:22:18.494Z,100768.38
2019-02-18T09:24:55.105Z,100769.32
2019-02-18T09:27:25.739Z,100767.36
2019-02-18T09:29:56.174Z,100770.48
2019-02-18T09:32:26.548Z,100767.05
2019-02-18T09:35:02.085Z,100765.45
2019-02-18T09:37:29.535Z,100768.60
2019-02-18T09:40:00.146Z,100762.20
2019-02-18T09:42:30.683Z,100761.56
2019-02-18T09:45:01.001Z,100762.14
2019-02-18T09:47:31.873Z,100758.70
2019-02-18T09:50:03.875Z,100758.23
2019-02-18T09:52:34.899Z,100753.46
2019-02-18T09:55:07.547Z,100756.62
2019-02-18T09:57:49.194Z,100756.11
2019-02-18T10:00:19.933Z,100750.84
2019-02-18T10:02:50.878Z,100747.57
2019-02-18T10:05:21.265Z,100746.64
2019-02-18T10:07:51.624Z,100747.15
2019-02-18T10:10:22.155Z,100748.47
2019-02-18T10:12:52.705Z,100745.77
2019-02-18T10:15:23.641Z,100739.09
2019-02-18T10:17:54.533Z,100738.70
2019-02-18T10:20:24.902Z,100732.77
2019-02-18T10:22:55.219Z,100740.96
2019-02-18T10:25:25.706Z,100734.75
2019-02-18T10:27:56.451Z,100738.42
2019-02-18T10:30:26.788Z,100732.74
2019-02-18T10:32:57.302Z,100730.81
2019-02-18T10:35:27.758Z,100731.75
2019-02-18T10:37:58.288Z,100724.54
2019-02-18T10:40:28.703Z,100717.35
2019-02-18T10:42:59.187Z,100715.29
2019-02-18T10:45:29.564Z,100716.86
2019-02-18T10:47:59.936Z,100712.51
2019-02-18T10:50:30.407Z,100712.28
2019-02-18T10:53:01.233Z,100706.06
2019-02-18T10:55:31.908Z,100703.09
2019-02-18T10:58:19.690Z,100707.19
2019-02-18T11:00:50.390Z,100701.95
2019-02-18T11:03:22.505Z,100705.41
2019-02-18T11:05:52.895Z,100697.44
2019-02-18T11:08:23.335Z,100690.95
2019-02-18T11:10:53.811Z,100688.81
2019-02-18T11:13:24.881Z,100680.19
2019-02-18T11:15:57.886Z,100681.88
2019-02-18T11:18:28.706Z,100674.95
2019-02-18T11:20:59.065Z,100672.34
2019-02-18T11:23:29.870Z,100671.38
2019-02-18T11:26:00.236Z,100667.82
2019-02-18T11:28:30.603Z,100672.04
2019-02-18T11:31:01.016Z,100665.34
2019-02-18T11:33:31.384Z,100656.30
2019-02-18T11:36:02.477Z,100657.14
2019-02-18T11:38:53.918Z,100655.42
2019-02-18T11:41:30.346Z,100650.34
2019-02-18T11:44:01.198Z,100650.77
2019-02-18T11:46:31.512Z,100639.56
2019-02-18T11:49:01.903Z,100642.42
2019-02-18T11:51:32.217Z,100635.00
2019-02-18T11:54:02.975Z,100633.92
2019-02-18T11:56:33.857Z,100626.03
2019-02-18T11:59:04.279Z,100625.79
2019-02-18T12:01:34.739Z,100624.03
2019-02-18T12:04:05.113Z,100624.34
2019-02-18T12:06:35.527Z,100616.09
2019-02-18T12:09:07.153Z,100622.36
2019-02-18T12:11:38.326Z,100611.70
2019-02-18T12:14:09.025Z,100603.73
2019-02-18T12:16:39.382Z,100601.78
2019-02-18T12:19:10.346Z,100602.86
2019-02-18T12:21:40.645Z,100600.63
2019-02-18T12:24:11.019Z,100594.33
2019-02-18T12:26:41.389Z,100589.14
2019-02-18T12:29:11.876Z,100583.56
2019-02-18T12:31:42.348Z,100585.00
2019-02-18T12:34:12.887Z,100575.19
2019-02-18T12:36:44.143Z,100570.92
2019-02-18T12:39:15.334Z,100570.13
2019-02-18T12:41:48.970Z,100570.74
2019-02-18T12:44:19.028Z,100570.77
2019-02-18T12:46:49.497Z,100564.95
2019-02-18T12:49:19.899Z,100557.59
2019-02-18T12:51:50.982Z,100562.41
2019-02-18T12:54:21.640Z,100554.09
2019-02-18T12:56:52.105Z,100550.94
2019-02-18T12:59:22.706Z,100550.33
2019-02-18T13:01:53.234Z,100551.22
2019-02-18T13:04:23.860Z,100545.56
2019-02-18T13:06:55.281Z,100539.80
2019-02-18T13:09:26.138Z,100528.29
2019-02-18T13:11:58.886Z,100526.62
2019-02-18T13:14:28.631Z,100528.91
2019-02-18T13:16:59.383Z,100518.73
2019-02-18T13:19:29.797Z,100515.91
2019-02-18T13:22:00.621Z,100513.68
2019-02-18T13:24:30.933Z,100510.60
2019-02-18T13:27:01.505Z,100507.20
2019-02-18T13:29:31.874Z,100502.52
2019-02-18T13:32:02.261Z,100500.01
2019-02-18T13:34:32.954Z,100494.87
2019-02-18T13:37:05.100Z,100494.63
2019-02-18T13:39:35.448Z,100490.72
2019-02-18T13:42:07.715Z,100491.74
2019-02-18T13:44:38.286Z,100486.47
2019-02-18T13:47:09.284Z,100491.50
2019-02-18T13:49:40.018Z,100482.09
2019-02-18T13:52:10.618Z,100474.05
2019-02-18T13:54:41.081Z,100476.31
2019-02-18T13:57:11.635Z,100471.30
2019-02-18T13:59:42.132Z,100469.95
2019-02-18T14:02:12.603Z,100466.39
2019-02-18T14:04:43.312Z,100461.08
2019-02-18T14:07:13.697Z,100455.48
2019-02-18T14:09:44.092Z,100450.42
2019-02-18T14:12:16.395Z,100454.61
2019-02-18T14:14:47.470Z,100445.80
2019-02-18T14:17:18.756Z,100451.80
2019-02-18T14:19:49.083Z,100448.31
2019-02-18T14:22:19.474Z,100445.97
2019-02-18T14:24:49.907Z,100443.33
2019-02-18T14:27:21.477Z,100448.86
2019-02-18T14:29:52.192Z,100444.33
2019-02-18T14:32:22.593Z,100438.63
2019-02-18T14:34:52.990Z,100439.43
2019-02-18T14:37:23.641Z,100439.98
2019-02-18T14:39:54.131Z,100441.63
2019-02-18T14:42:25.047Z,100436.25
2019-02-18T14:44:55.442Z,100434.53
2019-02-18T14:47:25.986Z,100438.81
2019-02-18T14:49:56.275Z,100431.19
2019-02-18T14:52:26.708Z,100425.23
2019-02-18T14:54:57.019Z,100424.63
2019-02-18T14:57:28.067Z,100422.38
2019-02-18T14:59:58.477Z,100423.45
2019-02-18T15:02:29.469Z,100425.81
2019-02-18T15:04:59.955Z,100421.79
2019-02-18T15:07:30.431Z,100418.09
2019-02-18T15:10:01.222Z,100416.42
2019-02-18T15:12:33.272Z,100416.64
2019-02-18T15:15:04.169Z,100412.27
2019-02-18T15:17:41.709Z,100408.14
2019-02-18T15:20:16.565Z,100407.83
2019-02-18T15:22:49.575Z,100402.77
2019-02-18T15:25:20.514Z,100405.44
2019-02-18T15:27:57.454Z,100398.06
2019-02-18T15:30:43.418Z,100401.06
2019-02-18T15:33:25.558Z,100400.05
2019-02-18T15:35:59.746Z,100398.53
2019-02-18T15:38:35.404Z,100396.15
2019-02-18T15:41:12.818Z,100394.30
2019-02-18T15:44:05.747Z,100392.29
2019-02-18T15:46:49.775Z,100388.80
2019-02-18T15:49:35.895Z,100384.94
2019-02-18T15:52:11.127Z,100383.47
2019-02-18T15:54:45.415Z,100389.33
2019-02-18T15:57:20.806Z,100386.55
2019-02-18T16:00:01.080Z,100383.61
2019-02-18T16:02:32.026Z,100379.45
2019-02-18T16:05:04.227Z,100378.83
2019-02-18T16:07:40.815Z,100380.38
2019-02-18T16:10:21.866Z,100375.22
2019-02-18T16:12:55.979Z,100378.09
2019-02-18T16:15:26.238Z,100383.55
2019-02-18T16:17:57.131Z,100380.52
2019-02-18T16:20:45.678Z,100385.72
2019-02-18T16:23:16.700Z,100374.03
2019-02-18T16:25:47.702Z,100380.52
2019-02-18T16:28:28.091Z,100377.14
2019-02-18T16:30:58.730Z,100375.45
2019-02-18T16:33:29.747Z,100377.68
2019-02-18T16:36:00.491Z,100372.84
2019-02-18T16:38:31.522Z,100373.12
2019-02-18T16:41:02.638Z,100372.89
2019-02-18T16:43:33.590Z,100370.33
2019-02-18T16:46:07.380Z,100372.78
2019-02-18T16:48:38.291Z,100373.16
2019-02-18T16:51:11.011Z,100369.11
2019-02-18T16:53:41.693Z,100374.92
2019-02-18T16:56:12.412Z,100377.55
2019-02-18T16:58:43.668Z,100382.82
2019-02-18T17:01:22.365Z,100376.97
2019-02-18T17:03:53.012Z,100384.27
2019-02-18T17:06:35.635Z,100379.36
2019-02-18T17:09:18.638Z,100389.13
2019-02-18T17:11:50.045Z,100383.02
2019-02-18T17:14:21.466Z,100382.22
2019-02-18T17:16:52.184Z,100385.72
2019-02-18T17:19:25.937Z,100388.48
2019-02-18T17:21:56.771Z,100387.91
2019-02-18T17:24:28.364Z,100386.83
2019-02-18T17:26:59.206Z,100382.11
2019-02-18T17:29:30.056Z,100376.21
2019-02-18T17:32:01.059Z,100378.02
2019-02-18T17:34:31.644Z,100374.52
2019-02-18T17:37:02.768Z,100373.68
2019-02-18T17:39:33.353Z,100371.27
2019-02-18T17:42:05.315Z,100366.41
2019-02-18T17:44:36.030Z,100374.30
2019-02-18T17:47:07.054Z,100370.52
2019-02-18T17:49:38.176Z,100369.41
2019-02-18T17:52:08.979Z,100363.25
2019-02-18T17:54:39.889Z,100367.16
2019-02-18T17:57:11.190Z,100361.80
2019-02-18T17:59:41.811Z,100359.09
2019-02-18T18:02:15.310Z,100360.02
2019-02-18T18:04:46.100Z,100364.56
2019-02-18T18:07:17.479Z,100360.21
2019-02-18T18:09:56.701Z,100363.03
2019-02-18T18:12:27.390Z,100367.19
2019-02-18T18:14:58.381Z,100363.92
2019-02-18T18:17:28.969Z,100364.62
2019-02-18T18:19:59.669Z,100366.39
2019-02-18T18:22:36.539Z,100363.30
2019-02-18T18:25:07.642Z,100369.79
2019-02-18T18:27:41.440Z,100362.00
2019-02-18T18:30:13.400Z,100358.54
2019-02-18T18:32:45.299Z,100361.23
2019-02-18T18:35:16.200Z,100350.22
2019-02-18T18:37:46.871Z,100349.37
2019-02-18T18:40:17.762Z,100354.52
2019-02-18T18:42:50.353Z,100347.42
2019-02-18T18:45:21.334Z,100358.95
2019-02-18T18:47:52.259Z,100356.83
2019-02-18T18:50:23.109Z,100353.66
2019-02-18T18:52:55.939Z,100357.75
2019-02-18T18:55:26.803Z,100351.60
2019-02-18T18:57:57.733Z,100350.60
2019-02-18T19:00:29.113Z,100351.77
2019-02-18T19:03:08.985Z,100352.83
2019-02-18T19:05:56.921Z,100358.45
2019-02-18T19:08:50.566Z,100359.83
2019-02-18T19:11:31.534Z,100356.28
2019-02-18T19:14:05.704Z,100358.38
2019-02-18T19:16:47.655Z,100361.23
2019-02-18T19:19:46.072Z,100367.62
2019-02-18T19:22:41.215Z,100365.09
2019-02-18T19:25:37.805Z,100367.72
2019-02-18T19:28:22.786Z,100366.69
2019-02-18T19:30:51.927Z,100368.57
2019-02-18T19:35:37.815Z,100369.98
2019-02-18T19:36:56.172Z,100370.34
2019-02-18T19:43:56.778Z,100369.89
2019-02-18T19:46:53.155Z,100371.20
2019-02-18T19:49:30.878Z,100368.74
2019-02-18T19:52:06.005Z,100362.56
2019-02-18T19:54:40.783Z,100364.44
2019-02-18T19:57:17.028Z,100368.58
2019-02-18T19:59:56.758Z,100365.39
2019-02-18T20:02:34.317Z,100363.44
2019-02-18T20:05:07.486Z,100366.93
2019-02-18T20:07:40.048Z,100366.37
2019-02-18T20:10:14.110Z,100366.63
2019-02-18T20:12:49.608Z,100361.47
2019-02-18T20:15:24.951Z,100363.89
2019-02-18T20:17:57.782Z,100358.02
2019-02-18T20:20:33.226Z,100355.09
2019-02-18T20:23:10.695Z,100355.84
2019-02-18T20:25:43.400Z,100356.39
2019-02-18T20:28:54.902Z,100361.45
2019-02-18T20:31:23.604Z,100359.48
2019-02-18T20:34:18.581Z,100358.64
2019-02-18T20:37:27.088Z,100355.27
2019-02-18T20:40:01.441Z,100355.80
2019-02-18T20:42:33.871Z,100358.79
2019-02-18T20:45:37.109Z,100354.12
2019-02-18T20:48:11.096Z,100352.82
2019-02-18T20:51:05.123Z,100356.86
2019-02-18T20:53:48.064Z,100352.16
2019-02-18T20:56:29.441Z,100343.07
2019-02-18T20:59:03.990Z,100347.95
2019-02-18T21:01:36.364Z,100349.53
2019-02-18T21:04:21.094Z,100350.20
2019-02-18T21:06:53.113Z,100355.85
2019-02-18T21:09:24.036Z,100350.05
2019-02-18T21:12:05.023Z,100355.85
2019-02-18T21:14:37.839Z,100346.84
2019-02-18T21:17:09.439Z,100348.31
2019-02-18T21:19:42.750Z,100348.39
2019-02-18T21:22:14.287Z,100350.17
2019-02-18T21:24:45.917Z,100346.38
2019-02-18T21:27:16.987Z,100345.95
2019-02-18T21:29:54.426Z,100340.14
2019-02-18T21:32:28.335Z,100339.47
2019-02-18T21:35:08.713Z,100337.22
2019-02-18T21:37:50.722Z,100341.86
2019-02-18T21:40:21.569Z,100336.67
2019-02-18T21:43:17.200Z,100338.17
2019-02-18T21:45:56.021Z,100336.31
2019-02-18T21:48:30.730Z,100338.91
2019-02-18T21:51:23.049Z,100336.31
2019-02-18T21:54:21.090Z,100340.47
2019-02-18T21:57:23.945Z,100342.88
2019-02-18T21:59:54.414Z,100341.10
2019-02-18T22:02:24.833Z,100343.90
2019-02-18T22:04:55.223Z,100334.48
2019-02-18T22:07:26.045Z,100335.66
2019-02-18T22:09:59.115Z,100327.00
2019-02-18T22:12:29.521Z,100314.83
2019-02-18T22:15:01.933Z,100345.66
2019-02-18T22:17:32.277Z,100342.99
2019-02-18T22:20:06.742Z,100350.96
2019-02-18T22:22:37.675Z,100346.04
2019-02-18T22:25:09.352Z,100352.27
2019-02-18T22:27:40.519Z,100354.48
2019-02-18T22:30:12.548Z,100352.64
2019-02-18T22:32:44.741Z,100347.63
2019-02-18T22:35:15.862Z,100347.23
2019-02-18T22:37:46.798Z,100351.02
2019-02-18T22:40:18.059Z,100352.70
2019-02-18T22:42:52.654Z,100350.08
2019-02-18T22:45:23.495Z,100343.30
2019-02-18T22:47:54.419Z,100351.07
2019-02-18T22:50:25.212Z,100345.20
2019-02-18T22:52:55.952Z,100346.63
2019-02-18T22:55:26.585Z,100343.88
2019-02-18T22:57:57.494Z,100347.80
2019-02-18T23:00:52.102Z,100345.23
2019-02-18T23:03:23.875Z,100350.64
2019-02-18T23:05:54.722Z,100344.23
2019-02-18T23:08:25.502Z,100347.25
2019-02-18T23:10:56.845Z,100348.77
2019-02-18T23:13:27.993Z,100349.25
2019-02-18T23:15:59.183Z,100350.31
2019-02-18T23:18:30.816Z,100343.53
2019-02-18T23:21:03.007Z,100340.47
2019-02-18T23:23:33.707Z,100343.77
2019-02-18T23:26:04.689Z,100338.19
2019-02-18T23:28:35.615Z,100341.17
2019-02-18T23:31:06.605Z,100345.09
2019-02-18T23:33:39.007Z,100343.77
2019-02-18T23:36:11.978Z,100339.91
2019-02-18T23:38:43.757Z,100336.78
2019-02-18T23:41:14.713Z,100342.27
2019-02-18T23:43:48.799Z,100342.13
2019-02-18T23:46:20.286Z,100340.66
2019-02-18T23:48:51.161Z,100341.45
2019-02-18T23:51:22.155Z,100338.68
2019-02-18T23:53:53.718Z,100338.00
2019-02-18T23:56:25.320Z,100338.46
2019-02-18T23:59:00.866Z,100336.17
